createdAt,value
2019-03-31T00:00:44.678Z,13.10
2019-03-31T00:03:10.840Z,13.00
2019-03-31T00:05:37.538Z,13.00
2019-03-31T00:08:03.884Z,12.90
2019-03-31T00:10:30.026Z,12.90
2019-03-31T00:12:56.199Z,12.80
2019-03-31T00:15:22.369Z,12.80
2019-03-31T00:17:48.506Z,12.80
2019-03-31T00:20:14.676Z,12.70
2019-03-31T00:22:40.835Z,12.70
2019-03-31T00:25:07.360Z,12.60
2019-03-31T00:27:33.496Z,12.60
2019-03-31T00:29:59.669Z,12.50
2019-03-31T00:32:25.844Z,12.50
2019-03-31T00:34:52.063Z,12.40
2019-03-31T00:37:18.219Z,12.40
2019-03-31T00:39:44.376Z,12.40
2019-03-31T00:42:10.891Z,12.30
2019-03-31T00:44:37.047Z,12.30
2019-03-31T00:47:03.210Z,12.30
2019-03-31T00:49:29.370Z,12.20
2019-03-31T00:51:55.591Z,12.20
2019-03-31T00:54:21.796Z,12.20
2019-03-31T00:56:47.959Z,12.10
2019-03-31T00:59:14.254Z,12.10
2019-03-31T01:01:45.491Z,12.10
2019-03-31T01:04:12.732Z,12.10
2019-03-31T01:06:39.502Z,12.00
2019-03-31T01:09:18.582Z,12.00
2019-03-31T01:11:46.715Z,12.00
2019-03-31T01:14:12.936Z,11.90
2019-03-31T01:16:39.101Z,11.90
2019-03-31T01:19:06.048Z,11.90
2019-03-31T01:21:32.209Z,11.90
2019-03-31T01:23:58.478Z,11.80
2019-03-31T01:26:24.736Z,11.80
2019-03-31T01:28:51.000Z,11.80
2019-03-31T01:31:17.746Z,11.70
2019-03-31T01:33:43.927Z,11.80
2019-03-31T01:36:10.203Z,11.70
2019-03-31T01:38:36.367Z,11.70
2019-03-31T01:41:02.843Z,11.70
2019-03-31T01:43:28.995Z,11.70
2019-03-31T01:45:55.250Z,11.60
2019-03-31T01:48:21.425Z,11.60
2019-03-31T01:50:47.688Z,11.60
2019-03-31T01:53:13.854Z,11.60
2019-03-31T01:55:39.991Z,11.60
2019-03-31T01:58:06.286Z,11.60
2019-03-31T02:00:40.743Z,11.60
2019-03-31T02:03:07.352Z,11.60
2019-03-31T02:05:33.497Z,11.50
2019-03-31T02:07:59.674Z,11.50
2019-03-31T02:10:25.845Z,11.50
2019-03-31T02:12:52.014Z,11.40
2019-03-31T02:15:18.164Z,11.40
2019-03-31T02:17:44.353Z,11.40
2019-03-31T02:20:10.520Z,11.40
2019-03-31T02:22:36.675Z,11.40
2019-03-31T02:25:04.419Z,11.40
2019-03-31T02:27:30.590Z,11.40
2019-03-31T02:29:56.733Z,11.40
2019-03-31T02:32:24.685Z,11.30
2019-03-31T02:34:50.949Z,11.30
2019-03-31T02:37:17.106Z,11.30
2019-03-31T02:39:43.267Z,11.30
2019-03-31T02:42:09.412Z,11.30
2019-03-31T02:44:35.701Z,11.30
2019-03-31T02:47:01.833Z,11.30
2019-03-31T02:49:28.105Z,11.30
2019-03-31T02:51:54.339Z,11.30
2019-03-31T02:54:20.649Z,11.30
2019-03-31T02:56:47.374Z,11.30
2019-03-31T02:59:15.275Z,11.30
2019-03-31T03:01:41.822Z,11.30
2019-03-31T03:04:08.781Z,11.30
2019-03-31T03:06:35.288Z,11.30
2019-03-31T03:09:04.967Z,11.30
2019-03-31T03:11:31.476Z,11.30
2019-03-31T03:14:03.867Z,11.30
2019-03-31T03:16:30.057Z,11.30
2019-03-31T03:18:56.260Z,11.30
2019-03-31T03:21:24.699Z,11.30
2019-03-31T03:23:51.067Z,11.40
2019-03-31T03:26:17.425Z,11.40
2019-03-31T03:28:43.658Z,11.40
2019-03-31T03:31:15.294Z,11.40
2019-03-31T03:33:38.414Z,11.50
2019-03-31T03:36:04.584Z,11.50
2019-03-31T03:38:30.796Z,11.50
2019-03-31T03:40:57.009Z,11.60
2019-03-31T03:43:23.153Z,11.60
2019-03-31T03:45:49.384Z,11.60
2019-03-31T03:48:15.604Z,11.60
2019-03-31T03:50:41.898Z,11.70
2019-03-31T03:53:08.108Z,11.70
2019-03-31T03:55:34.333Z,11.70
2019-03-31T03:58:00.472Z,11.70
2019-03-31T04:00:26.997Z,11.70
2019-03-31T04:02:53.122Z,11.70
2019-03-31T04:05:19.326Z,11.80
2019-03-31T04:07:45.561Z,11.80
2019-03-31T04:10:43.755Z,11.80
2019-03-31T04:13:09.905Z,11.80
2019-03-31T04:15:36.110Z,11.80
2019-03-31T04:18:02.256Z,11.80
2019-03-31T04:20:28.473Z,11.80
2019-03-31T04:22:54.621Z,11.70
2019-03-31T04:25:20.877Z,11.80
2019-03-31T04:27:47.028Z,11.80
2019-03-31T04:30:13.330Z,11.80
2019-03-31T04:32:39.488Z,11.70
2019-03-31T04:35:25.575Z,11.70
2019-03-31T04:37:51.929Z,11.70
2019-03-31T04:40:18.119Z,11.70
2019-03-31T04:42:44.279Z,11.70
2019-03-31T04:45:10.694Z,11.60
2019-03-31T04:47:37.119Z,11.60
2019-03-31T04:50:03.554Z,11.50
2019-03-31T04:52:29.809Z,11.50
2019-03-31T04:54:56.014Z,11.50
2019-03-31T04:57:22.158Z,11.40
2019-03-31T04:59:48.391Z,11.40
2019-03-31T05:02:14.560Z,11.30
2019-03-31T05:04:41.004Z,11.30
2019-03-31T05:07:07.157Z,11.20
2019-03-31T05:09:33.382Z,11.20
2019-03-31T05:11:59.549Z,11.20
2019-03-31T05:14:25.691Z,11.20
2019-03-31T05:16:51.937Z,11.10
2019-03-31T05:19:18.080Z,11.10
2019-03-31T05:21:44.303Z,11.20
2019-03-31T05:24:10.453Z,11.30
2019-03-31T05:26:36.969Z,11.30
2019-03-31T05:29:03.104Z,11.40
2019-03-31T05:31:29.329Z,11.50
2019-03-31T05:33:55.790Z,11.70
2019-03-31T05:36:21.991Z,11.80
2019-03-31T05:38:48.150Z,12.00
2019-03-31T05:41:14.358Z,12.20
2019-03-31T05:43:40.543Z,12.50
2019-03-31T05:46:06.747Z,12.70
2019-03-31T05:48:32.891Z,13.00
2019-03-31T05:50:59.165Z,13.20
2019-03-31T05:53:25.327Z,13.50
2019-03-31T05:55:51.521Z,13.80
2019-03-31T05:58:17.664Z,14.10
2019-03-31T06:00:44.919Z,14.40
2019-03-31T06:03:11.114Z,14.70
2019-03-31T06:05:37.411Z,15.00
2019-03-31T06:08:04.158Z,15.40
2019-03-31T06:10:30.460Z,15.70
2019-03-31T06:12:56.609Z,16.00
2019-03-31T06:15:24.502Z,16.40
2019-03-31T06:17:50.642Z,17.00
2019-03-31T06:20:16.871Z,17.00
2019-03-31T06:22:43.135Z,17.40
2019-03-31T06:25:09.447Z,17.70
2019-03-31T06:27:35.680Z,18.10
2019-03-31T06:30:04.909Z,18.40
2019-03-31T06:32:31.079Z,18.80
2019-03-31T06:34:57.720Z,19.10
2019-03-31T06:37:23.871Z,19.50
2019-03-31T06:39:50.097Z,19.90
2019-03-31T06:42:16.297Z,20.30
2019-03-31T06:44:42.435Z,20.70
2019-03-31T06:47:08.658Z,21.00
2019-03-31T06:49:34.804Z,21.40
2019-03-31T06:52:01.091Z,21.80
2019-03-31T06:54:27.315Z,22.20
2019-03-31T06:56:53.530Z,22.50
2019-03-31T06:59:19.713Z,23.00
2019-03-31T07:01:45.930Z,23.30
2019-03-31T07:04:12.071Z,23.70
2019-03-31T07:06:38.313Z,24.10
2019-03-31T07:09:05.188Z,24.50
2019-03-31T07:11:31.463Z,24.80
2019-03-31T07:13:57.596Z,25.20
2019-03-31T07:16:23.815Z,25.50
2019-03-31T07:18:49.958Z,25.80
2019-03-31T07:21:16.175Z,26.10
2019-03-31T07:23:42.306Z,26.90
2019-03-31T07:26:08.512Z,26.80
2019-03-31T07:28:34.675Z,27.10
2019-03-31T07:31:00.881Z,27.50
2019-03-31T07:33:27.031Z,27.80
2019-03-31T07:35:53.225Z,28.20
2019-03-31T07:38:19.634Z,28.60
2019-03-31T07:40:46.245Z,28.90
2019-03-31T07:43:12.728Z,29.20
2019-03-31T07:45:39.018Z,29.60
2019-03-31T07:48:08.140Z,29.90
2019-03-31T07:50:33.949Z,30.20
2019-03-31T07:53:02.910Z,30.50
2019-03-31T07:55:29.056Z,30.80
2019-03-31T07:57:55.264Z,31.10
2019-03-31T08:00:23.495Z,31.40
2019-03-31T08:02:49.742Z,31.80
2019-03-31T08:05:16.284Z,32.10
2019-03-31T08:07:42.487Z,32.30
2019-03-31T08:10:11.441Z,32.50
2019-03-31T08:12:37.764Z,32.80
2019-03-31T08:15:06.721Z,33.00
2019-03-31T08:17:36.575Z,33.30
2019-03-31T08:20:09.930Z,33.60
2019-03-31T08:22:36.123Z,33.80
2019-03-31T08:25:04.672Z,34.10
2019-03-31T08:27:30.901Z,34.30
2019-03-31T08:30:00.903Z,34.50
2019-03-31T08:32:28.392Z,34.60
2019-03-31T08:34:53.791Z,34.80
2019-03-31T08:37:20.330Z,34.90
2019-03-31T08:39:46.472Z,35.10
2019-03-31T08:42:12.676Z,35.20
2019-03-31T08:44:39.759Z,35.40
2019-03-31T08:47:07.066Z,35.50
2019-03-31T08:49:33.215Z,35.60
2019-03-31T08:51:59.518Z,35.70
2019-03-31T08:54:25.676Z,35.80
2019-03-31T08:56:51.813Z,35.80
2019-03-31T08:59:18.034Z,35.80
2019-03-31T09:01:44.867Z,35.60
2019-03-31T09:04:11.083Z,35.30
2019-03-31T09:06:37.231Z,34.90
2019-03-31T09:09:06.652Z,34.50
2019-03-31T09:11:32.816Z,34.20
2019-03-31T09:13:59.036Z,33.90
2019-03-31T09:16:25.292Z,33.60
2019-03-31T09:18:51.868Z,33.30
2019-03-31T09:21:17.998Z,33.00
2019-03-31T09:23:44.242Z,32.70
2019-03-31T09:26:10.391Z,32.30
2019-03-31T09:28:36.593Z,31.80
2019-03-31T09:31:02.765Z,31.30
2019-03-31T09:33:29.227Z,30.90
2019-03-31T09:35:55.361Z,30.60
2019-03-31T09:38:21.672Z,30.20
2019-03-31T09:40:47.813Z,29.90
2019-03-31T09:43:14.026Z,29.50
2019-03-31T09:45:40.169Z,29.10
2019-03-31T09:48:06.385Z,28.80
2019-03-31T09:50:32.807Z,28.30
2019-03-31T09:52:59.189Z,28.00
2019-03-31T09:55:25.313Z,27.60
2019-03-31T09:57:51.527Z,27.20
2019-03-31T10:00:42.694Z,26.80
2019-03-31T10:03:08.978Z,26.40
2019-03-31T10:05:35.091Z,26.00
2019-03-31T10:08:01.298Z,25.60
2019-03-31T10:10:30.543Z,25.30
2019-03-31T10:12:57.082Z,24.90
2019-03-31T10:15:23.236Z,24.60
2019-03-31T10:17:49.379Z,24.20
2019-03-31T10:20:15.610Z,24.00
2019-03-31T10:22:41.757Z,23.80
2019-03-31T10:25:13.187Z,23.50
2019-03-31T10:27:38.667Z,23.30
2019-03-31T10:30:06.304Z,23.10
2019-03-31T10:32:32.417Z,23.00
2019-03-31T10:34:58.650Z,22.80
2019-03-31T10:37:24.954Z,22.80
2019-03-31T10:39:51.154Z,22.70
2019-03-31T10:42:17.291Z,22.70
2019-03-31T10:44:43.494Z,22.70
2019-03-31T10:47:09.646Z,22.80
2019-03-31T10:49:36.148Z,22.90
2019-03-31T10:52:02.615Z,23.10
2019-03-31T10:54:28.833Z,23.50
2019-03-31T10:56:55.238Z,23.80
2019-03-31T10:59:21.506Z,24.10
2019-03-31T11:01:47.656Z,24.40
2019-03-31T11:04:13.863Z,24.50
2019-03-31T11:06:40.002Z,24.70
2019-03-31T11:09:06.619Z,24.80
2019-03-31T11:11:32.753Z,24.80
2019-03-31T11:13:58.925Z,24.90
2019-03-31T11:16:25.407Z,25.00
2019-03-31T11:18:51.544Z,25.10
2019-03-31T11:21:25.111Z,25.20
2019-03-31T11:23:51.263Z,25.30
2019-03-31T11:26:17.478Z,25.40
2019-03-31T11:28:43.955Z,25.50
2019-03-31T11:31:18.064Z,25.70
2019-03-31T11:33:44.602Z,25.80
2019-03-31T11:36:11.043Z,26.00
2019-03-31T11:38:37.257Z,26.20
2019-03-31T11:41:03.464Z,26.30
2019-03-31T11:43:29.948Z,26.30
2019-03-31T11:45:56.189Z,26.20
2019-03-31T11:48:22.424Z,26.10
2019-03-31T11:50:48.636Z,25.90
2019-03-31T11:53:14.847Z,25.70
2019-03-31T11:55:41.080Z,25.60
2019-03-31T11:58:07.253Z,25.30
2019-03-31T12:00:35.364Z,25.10
2019-03-31T12:03:01.767Z,24.90
2019-03-31T12:05:27.974Z,24.70
2019-03-31T12:07:54.173Z,24.60
2019-03-31T12:10:20.400Z,24.40
2019-03-31T12:12:46.529Z,24.40
2019-03-31T12:15:12.858Z,24.40
2019-03-31T12:17:39.000Z,24.60
2019-03-31T12:20:07.051Z,24.70
2019-03-31T12:22:33.582Z,24.90
2019-03-31T12:25:00.043Z,25.10
2019-03-31T12:27:26.249Z,25.20
2019-03-31T12:29:52.420Z,25.30
2019-03-31T12:32:18.706Z,25.30
2019-03-31T12:34:44.847Z,25.40
2019-03-31T12:37:11.313Z,25.40
2019-03-31T12:39:37.504Z,25.20
2019-03-31T12:42:03.697Z,25.10
2019-03-31T12:44:30.231Z,24.90
2019-03-31T12:46:56.672Z,24.60
2019-03-31T12:49:22.833Z,24.40
2019-03-31T12:51:49.099Z,24.20
2019-03-31T12:54:15.305Z,24.00
2019-03-31T12:56:41.514Z,23.80
2019-03-31T12:59:07.678Z,23.60
2019-03-31T13:01:33.929Z,23.50
2019-03-31T13:04:00.338Z,23.30
2019-03-31T13:06:26.623Z,23.20
2019-03-31T13:08:52.769Z,23.10
2019-03-31T13:11:19.114Z,23.10
2019-03-31T13:13:45.224Z,23.00
2019-03-31T13:16:11.388Z,23.10
2019-03-31T13:18:37.599Z,23.20
2019-03-31T13:21:03.745Z,23.20
2019-03-31T13:23:30.005Z,23.20
2019-03-31T13:25:56.627Z,23.20
2019-03-31T13:28:22.827Z,23.20
2019-03-31T13:30:49.003Z,23.20
2019-03-31T13:33:15.259Z,23.10
2019-03-31T13:35:41.391Z,23.00
2019-03-31T13:38:11.369Z,22.90
2019-03-31T13:40:35.803Z,22.80
2019-03-31T13:43:02.042Z,22.70
2019-03-31T13:45:28.184Z,22.60
2019-03-31T13:47:54.396Z,22.50
2019-03-31T13:50:20.531Z,22.30
2019-03-31T13:52:46.909Z,22.10
2019-03-31T13:55:13.186Z,22.00
2019-03-31T13:57:40.393Z,21.80
2019-03-31T14:00:09.246Z,21.70
2019-03-31T14:02:35.527Z,21.50
2019-03-31T14:05:01.917Z,21.30
2019-03-31T14:07:28.109Z,21.10
2019-03-31T14:09:54.612Z,21.00
2019-03-31T14:12:20.772Z,20.80
2019-03-31T14:14:47.082Z,20.70
2019-03-31T14:17:13.230Z,20.60
2019-03-31T14:19:39.425Z,20.50
2019-03-31T14:22:05.971Z,20.40
2019-03-31T14:24:32.182Z,20.30
2019-03-31T14:26:58.319Z,20.20
2019-03-31T14:29:24.543Z,20.10
2019-03-31T14:31:52.055Z,20.00
2019-03-31T14:34:18.709Z,19.90
2019-03-31T14:36:44.861Z,19.80
2019-03-31T14:39:11.050Z,19.80
2019-03-31T14:41:37.224Z,19.70
2019-03-31T14:44:03.424Z,19.60
2019-03-31T14:46:29.558Z,19.60
2019-03-31T14:48:55.769Z,19.50
2019-03-31T14:51:21.915Z,19.40
2019-03-31T14:53:48.221Z,19.30
2019-03-31T14:56:14.391Z,19.30
2019-03-31T14:58:40.597Z,19.20
2019-03-31T15:01:06.755Z,19.20
2019-03-31T15:03:32.983Z,19.10
2019-03-31T15:05:59.432Z,19.10
2019-03-31T15:08:25.642Z,19.00
2019-03-31T15:10:51.788Z,18.90
2019-03-31T15:13:17.930Z,18.80
2019-03-31T15:15:44.165Z,18.80
2019-03-31T15:18:10.323Z,18.70
2019-03-31T15:20:36.533Z,18.60
2019-03-31T15:23:03.066Z,18.60
2019-03-31T15:25:29.272Z,18.50
2019-03-31T15:27:55.423Z,18.40
2019-03-31T15:30:21.627Z,18.40
2019-03-31T15:32:47.790Z,18.30
2019-03-31T15:35:14.102Z,18.30
2019-03-31T15:37:40.804Z,18.20
2019-03-31T15:40:07.312Z,18.20
2019-03-31T15:42:33.484Z,18.10
2019-03-31T15:44:59.688Z,18.10
2019-03-31T15:47:25.835Z,18.00
2019-03-31T15:49:52.047Z,18.00
2019-03-31T15:52:18.320Z,17.90
2019-03-31T15:54:44.653Z,17.80
2019-03-31T15:57:10.853Z,17.80
2019-03-31T15:59:37.064Z,17.70
2019-03-31T16:02:03.530Z,17.70
2019-03-31T16:04:29.744Z,17.60
2019-03-31T16:06:55.891Z,17.50
2019-03-31T16:09:24.000Z,17.50
2019-03-31T16:11:53.859Z,17.40
2019-03-31T16:14:18.562Z,17.40
2019-03-31T16:16:44.793Z,17.30
2019-03-31T16:19:10.944Z,17.30
2019-03-31T16:21:37.199Z,17.30
2019-03-31T16:24:03.350Z,17.20
2019-03-31T16:26:29.656Z,17.10
2019-03-31T16:28:55.814Z,17.10
2019-03-31T16:31:22.026Z,17.10
2019-03-31T16:33:48.195Z,17.00
2019-03-31T16:36:14.414Z,17.00
2019-03-31T16:38:40.559Z,17.00
2019-03-31T16:41:06.837Z,17.00
2019-03-31T16:43:32.997Z,16.90
2019-03-31T16:45:59.213Z,16.90
2019-03-31T16:48:25.382Z,16.80
2019-03-31T16:50:51.600Z,16.80
2019-03-31T16:53:17.836Z,16.80
2019-03-31T16:55:44.070Z,16.80
2019-03-31T16:58:10.295Z,16.70
2019-03-31T17:00:36.530Z,16.70
2019-03-31T17:03:03.178Z,16.70
2019-03-31T17:05:29.394Z,16.60
2019-03-31T17:07:55.881Z,16.60
2019-03-31T17:10:22.173Z,16.50
2019-03-31T17:12:48.350Z,16.50
2019-03-31T17:15:14.709Z,16.40
2019-03-31T17:17:47.847Z,16.40
2019-03-31T17:20:19.319Z,16.30
2019-03-31T17:22:45.554Z,16.20
2019-03-31T17:25:11.711Z,16.20
2019-03-31T17:27:38.555Z,16.20
2019-03-31T17:30:06.372Z,16.10
2019-03-31T17:32:32.697Z,16.00
2019-03-31T17:34:58.862Z,16.00
2019-03-31T17:37:25.087Z,15.90
2019-03-31T17:40:05.073Z,15.90
2019-03-31T17:42:20.038Z,15.90
2019-03-31T17:44:46.438Z,15.80
2019-03-31T17:47:12.646Z,15.80
2019-03-31T17:49:38.815Z,15.70
2019-03-31T17:52:05.389Z,15.70
2019-03-31T17:54:31.532Z,15.70
2019-03-31T17:56:58.240Z,15.60
2019-03-31T17:59:24.708Z,15.60
2019-03-31T18:01:50.919Z,15.60
2019-03-31T18:04:17.081Z,15.50
2019-03-31T18:06:43.239Z,15.50
2019-03-31T18:09:09.678Z,15.50
2019-03-31T18:11:35.878Z,15.50
2019-03-31T18:14:02.104Z,15.40
2019-03-31T18:16:28.267Z,15.40
2019-03-31T18:18:54.797Z,15.40
2019-03-31T18:21:21.084Z,15.30
2019-03-31T18:23:47.309Z,15.30
2019-03-31T18:26:13.494Z,15.20
2019-03-31T18:28:39.829Z,15.10
2019-03-31T18:31:06.136Z,15.10
2019-03-31T18:33:32.603Z,15.00
2019-03-31T18:35:58.758Z,14.90
2019-03-31T18:38:25.076Z,14.80
2019-03-31T18:40:51.329Z,14.70
2019-03-31T18:43:17.612Z,14.60
2019-03-31T18:45:43.720Z,14.50
2019-03-31T18:48:09.975Z,14.40
2019-03-31T18:50:36.128Z,14.30
2019-03-31T18:53:03.260Z,14.20
2019-03-31T18:55:43.842Z,14.20
2019-03-31T18:58:23.926Z,14.00
2019-03-31T19:01:04.374Z,13.90
2019-03-31T19:03:38.552Z,13.80
2019-03-31T19:06:24.069Z,13.70
2019-03-31T19:08:55.242Z,13.60
2019-03-31T19:11:29.643Z,13.50
2019-03-31T19:14:12.866Z,13.50
2019-03-31T19:16:59.314Z,13.40
2019-03-31T19:19:34.562Z,13.30
2019-03-31T19:22:05.429Z,13.20
2019-03-31T19:24:39.676Z,13.10
2019-03-31T19:27:17.019Z,13.10
2019-03-31T19:29:45.330Z,13.00
2019-03-31T19:32:30.087Z,12.90
2019-03-31T19:34:58.500Z,12.90
2019-03-31T19:37:41.676Z,12.80
2019-03-31T19:40:21.944Z,12.70
2019-03-31T19:42:56.075Z,12.70
2019-03-31T19:45:33.804Z,12.60
2019-03-31T19:48:13.928Z,12.50
2019-03-31T19:50:47.769Z,12.40
2019-03-31T19:53:32.329Z,12.40
2019-03-31T19:56:07.452Z,12.30
2019-03-31T19:58:46.976Z,12.30
2019-03-31T20:01:21.364Z,12.20
2019-03-31T20:03:49.668Z,12.10
2019-03-31T20:06:17.880Z,12.10
2019-03-31T20:08:55.168Z,12.00
2019-03-31T20:11:35.869Z,12.00
2019-03-31T20:14:06.596Z,11.90
2019-03-31T20:16:41.121Z,11.90
2019-03-31T20:19:11.966Z,11.80
2019-03-31T20:21:40.089Z,11.80
2019-03-31T20:24:11.035Z,11.70
2019-03-31T20:26:54.402Z,11.70
2019-03-31T20:29:39.170Z,11.70
2019-03-31T20:32:22.565Z,11.60
2019-03-31T20:34:59.988Z,11.60
2019-03-31T20:37:31.120Z,11.50
2019-03-31T20:40:16.330Z,11.50
2019-03-31T20:42:56.351Z,11.40
2019-03-31T20:45:22.491Z,11.40
2019-03-31T20:47:48.713Z,11.30
2019-03-31T20:50:14.914Z,11.30
2019-03-31T20:52:41.221Z,11.20
2019-03-31T20:55:16.265Z,11.20
2019-03-31T20:57:36.093Z,11.20
2019-03-31T21:00:06.543Z,11.20
2019-03-31T21:02:32.773Z,11.10
2019-03-31T21:04:58.935Z,11.10
2019-03-31T21:07:25.142Z,11.10
2019-03-31T21:09:51.603Z,11.10
2019-03-31T21:12:24.238Z,11.00
2019-03-31T21:14:50.416Z,11.00
2019-03-31T21:17:16.554Z,11.00
2019-03-31T21:19:42.895Z,11.00
2019-03-31T21:22:09.108Z,10.90
2019-03-31T21:24:35.254Z,10.90
2019-03-31T21:27:01.679Z,10.90
2019-03-31T21:29:30.238Z,10.90
2019-03-31T21:31:56.451Z,10.80
2019-03-31T21:34:22.672Z,10.80
2019-03-31T21:36:49.610Z,10.80
2019-03-31T21:39:15.839Z,10.80
2019-03-31T21:41:43.056Z,10.80
2019-03-31T21:44:09.359Z,10.80
2019-03-31T21:46:35.503Z,10.70
2019-03-31T21:49:01.718Z,10.70
2019-03-31T21:51:27.853Z,10.70
2019-03-31T21:53:54.208Z,10.60
2019-03-31T21:56:20.381Z,10.60
2019-03-31T21:58:46.663Z,10.50
2019-03-31T22:01:13.256Z,10.50
2019-03-31T22:03:39.922Z,10.50
2019-03-31T22:06:06.069Z,10.50
2019-03-31T22:08:32.267Z,10.40
2019-03-31T22:10:58.406Z,10.40
2019-03-31T22:13:24.610Z,10.40
2019-03-31T22:15:50.776Z,10.30
2019-03-31T22:18:17.001Z,10.30
2019-03-31T22:20:43.130Z,10.30
2019-03-31T22:23:09.275Z,10.30
2019-03-31T22:25:35.485Z,10.20
2019-03-31T22:28:01.902Z,10.20
2019-03-31T22:30:28.506Z,10.10
2019-03-31T22:32:55.028Z,10.10
2019-03-31T22:35:26.733Z,10.10
2019-03-31T22:37:52.894Z,10.10
2019-03-31T22:40:19.107Z,10.00
2019-03-31T22:42:45.590Z,10.00
2019-03-31T22:45:11.792Z,10.00
2019-03-31T22:47:37.942Z,10.00
2019-03-31T22:50:04.831Z,9.90
2019-03-31T22:52:31.046Z,9.90
2019-03-31T22:54:57.261Z,9.80
2019-03-31T22:57:23.740Z,9.80
2019-03-31T22:59:49.983Z,9.70
2019-03-31T23:02:16.122Z,9.70
2019-03-31T23:04:42.317Z,9.70
2019-03-31T23:07:08.778Z,9.60
2019-03-31T23:09:34.982Z,9.60
2019-03-31T23:12:01.131Z,9.60
2019-03-31T23:14:27.384Z,9.50
2019-03-31T23:16:53.523Z,9.50
2019-03-31T23:19:20.034Z,9.50
2019-03-31T23:21:46.309Z,9.50
2019-03-31T23:24:12.488Z,9.40
2019-03-31T23:26:38.647Z,9.40
2019-03-31T23:29:04.808Z,9.40
2019-03-31T23:31:31.019Z,9.30
2019-03-31T23:33:57.160Z,9.30
2019-03-31T23:36:23.708Z,9.30
2019-03-31T23:38:50.072Z,9.30
2019-03-31T23:41:16.268Z,9.20
2019-03-31T23:43:42.453Z,9.20
2019-03-31T23:46:14.976Z,9.20
2019-03-31T23:48:41.122Z,9.20
2019-03-31T23:51:20.437Z,9.10
2019-03-31T23:53:46.664Z,9.10
2019-03-31T23:56:12.812Z,9.00
2019-03-31T23:58:39.016Z,9.00
